QFA139 YMHB-YBAS
Flight info
| Callsign | QFA139 |
|---|---|
| Flight time | N/A |
| Altitude | 38000 |
| Route | LATUM H111 LT H215 ONAGI/N0373F200 W562 MB W661 ML/N0470F380 H164 LEC A461 IDANU |
| Aircraft | B789/H-SDE1E2E3FGHIJ2J3J4J5M1RWXY/LB1D1 |
Departure
| Time | 2026-05-09 11:16 |
|---|---|
| Airport | Hobart International Airport (YMHB) |
Arrival
| Time | N/A |
|---|---|
| Airport | Alice Springs Airport (YBAS) |
| Time | Latitude | Longitude | Altitude | Speed | Heading |
|---|---|---|---|---|---|
| 2026-05-09 10:47 | -42.83737 | 147.50713 | 27 ft | 0 kts | 236° |
| 2026-05-09 11:05 | -42.83733 | 147.50723 | 26 ft | 5 kts | 236° |
| 2026-05-09 11:05 | -42.83701 | 147.50774 | 26 ft | 2 kts | 197° |
| 2026-05-09 11:05 | -42.83699 | 147.50776 | 26 ft | 1 kts | 182° |
| 2026-05-09 11:06 | -42.83693 | 147.50777 | 26 ft | 1 kts | 150° |
| 2026-05-09 11:06 | -42.83690 | 147.50775 | 26 ft | 0 kts | 131° |
| 2026-05-09 11:10 | -42.83691 | 147.50779 | 27 ft | 1 kts | 117° |
| 2026-05-09 11:10 | -42.83681 | 147.50865 | 27 ft | 9 kts | 94° |
| 2026-05-09 11:10 | -42.83748 | 147.50989 | 26 ft | 21 kts | 135° |
| 2026-05-09 11:11 | -42.83845 | 147.51128 | 27 ft | 19 kts | 122° |
| 2026-05-09 11:11 | -42.83830 | 147.51231 | 27 ft | 10 kts | 46° |
| 2026-05-09 11:11 | -42.83823 | 147.51240 | 27 ft | 0 kts | 42° |
| 2026-05-09 11:12 | -42.83792 | 147.51283 | 27 ft | 23 kts | 47° |
| 2026-05-09 11:12 | -42.83808 | 147.51449 | 27 ft | 30 kts | 135° |
| 2026-05-09 11:12 | -42.83960 | 147.51649 | 27 ft | 30 kts | 135° |
| 2026-05-09 11:13 | -42.84106 | 147.51846 | 27 ft | 29 kts | 135° |
| 2026-05-09 11:13 | -42.84247 | 147.52038 | 27 ft | 28 kts | 135° |
| 2026-05-09 11:13 | -42.84386 | 147.52225 | 27 ft | 28 kts | 135° |
| 2026-05-09 11:13 | -42.84546 | 147.52336 | 26 ft | 23 kts | 153° |
| 2026-05-09 11:14 | -42.84557 | 147.52407 | 27 ft | 11 kts | 38° |
| 2026-05-09 11:14 | -42.84509 | 147.52385 | 27 ft | 12 kts | 317° |
| 2026-05-09 11:14 | -42.84503 | 147.52378 | 27 ft | 0 kts | 317° |
| 2026-05-09 11:15 | -42.84396 | 147.52236 | 27 ft | 58 kts | 315° |
| 2026-05-09 11:15 | -42.83929 | 147.51603 | 27 ft | 129 kts | 315° |
| 2026-05-09 11:15 | -42.83165 | 147.50556 | 214 ft | 169 kts | 309° |
| 2026-05-09 11:16 | -42.82337 | 147.49380 | 885 ft | 187 kts | 314° |
| 2026-05-09 11:16 | -42.81287 | 147.48030 | 1237 ft | 227 kts | 314° |
| 2026-05-09 11:16 | -42.80146 | 147.46486 | 2365 ft | 225 kts | 311° |
| 2026-05-09 11:16 | -42.79030 | 147.44956 | 3318 ft | 242 kts | 310° |
| 2026-05-09 11:17 | -42.77785 | 147.43231 | 4296 ft | 256 kts | 309° |
| 2026-05-09 11:17 | -42.76509 | 147.41476 | 5254 ft | 273 kts | 309° |
| 2026-05-09 11:17 | -42.75142 | 147.39604 | 6304 ft | 284 kts | 310° |
| 2026-05-09 11:17 | -42.73721 | 147.37661 | 7353 ft | 293 kts | 310° |
| 2026-05-09 11:18 | -42.72275 | 147.35687 | 8580 ft | 296 kts | 310° |
| 2026-05-09 11:18 | -42.70808 | 147.33681 | 9732 ft | 301 kts | 309° |
| 2026-05-09 11:18 | -42.69309 | 147.31625 | 10604 ft | 317 kts | 309° |
| 2026-05-09 11:18 | -42.67685 | 147.29394 | 11074 ft | 346 kts | 310° |
| 2026-05-09 11:19 | -42.65919 | 147.26984 | 11519 ft | 373 kts | 310° |
| 2026-05-09 11:19 | -42.64057 | 147.24461 | 12499 ft | 380 kts | 311° |
| 2026-05-09 11:19 | -42.62119 | 147.21979 | 13542 ft | 390 kts | 320° |
| 2026-05-09 11:19 | -42.59679 | 147.20249 | 14522 ft | 402 kts | 339° |
| 2026-05-09 11:20 | -42.56915 | 147.19585 | 15456 ft | 410 kts | 359° |
| 2026-05-09 11:20 | -42.54078 | 147.20114 | 16381 ft | 415 kts | 18° |
| 2026-05-09 11:20 | -42.51468 | 147.21789 | 17271 ft | 418 kts | 34° |
| 2026-05-09 11:20 | -42.49027 | 147.23993 | 18102 ft | 423 kts | 37° |
| 2026-05-09 11:21 | -42.46621 | 147.26331 | 18913 ft | 428 kts | 37° |
| 2026-05-09 11:21 | -42.44222 | 147.28659 | 19636 ft | 433 kts | 36° |
| 2026-05-09 11:21 | -42.41728 | 147.30988 | 20339 ft | 438 kts | 36° |
| 2026-05-09 11:21 | -42.39198 | 147.33334 | 21026 ft | 443 kts | 36° |
| 2026-05-09 11:22 | -42.36658 | 147.35719 | 21708 ft | 447 kts | 34° |
| 2026-05-09 11:22 | -42.33868 | 147.37626 | 22312 ft | 453 kts | 19° |
| 2026-05-09 11:22 | -42.30798 | 147.38644 | 22953 ft | 457 kts | 5° |
| 2026-05-09 11:22 | -42.27618 | 147.38707 | 23562 ft | 459 kts | 352° |
| 2026-05-09 11:23 | -42.24451 | 147.38021 | 24070 ft | 463 kts | 348° |
| 2026-05-09 11:23 | -42.21262 | 147.37259 | 24594 ft | 466 kts | 348° |
| 2026-05-09 11:23 | -42.18058 | 147.36468 | 25078 ft | 470 kts | 348° |
| 2026-05-09 11:23 | -42.14826 | 147.35686 | 25569 ft | 474 kts | 348° |
| 2026-05-09 11:24 | -42.11559 | 147.34912 | 26042 ft | 477 kts | 348° |
| 2026-05-09 11:24 | -42.08283 | 147.34132 | 26517 ft | 480 kts | 348° |
| 2026-05-09 11:24 | -42.04972 | 147.33335 | 26966 ft | 483 kts | 348° |
| 2026-05-09 11:24 | -42.01650 | 147.32536 | 27405 ft | 487 kts | 348° |
| 2026-05-09 11:25 | -41.98305 | 147.31739 | 27852 ft | 490 kts | 348° |
| 2026-05-09 11:25 | -41.94943 | 147.30940 | 28294 ft | 492 kts | 348° |
| 2026-05-09 11:25 | -41.91599 | 147.30142 | 28709 ft | 495 kts | 348° |
| 2026-05-09 11:25 | -41.88152 | 147.29319 | 29128 ft | 498 kts | 348° |
| 2026-05-09 11:26 | -41.84732 | 147.28506 | 29512 ft | 501 kts | 348° |
| 2026-05-09 11:26 | -41.81288 | 147.27688 | 29906 ft | 503 kts | 348° |
| 2026-05-09 11:26 | -41.77832 | 147.26868 | 30282 ft | 506 kts | 348° |
| 2026-05-09 11:26 | -41.74406 | 147.26056 | 30603 ft | 509 kts | 348° |
| 2026-05-09 11:27 | -41.70908 | 147.25227 | 30887 ft | 511 kts | 348° |
| 2026-05-09 11:27 | -41.67391 | 147.24395 | 31186 ft | 513 kts | 348° |
| 2026-05-09 11:27 | -41.63865 | 147.23562 | 31463 ft | 516 kts | 348° |
| 2026-05-09 11:27 | -41.60329 | 147.22727 | 31730 ft | 518 kts | 348° |
| 2026-05-09 11:28 | -41.56766 | 147.21887 | 32000 ft | 520 kts | 348° |
| 2026-05-09 11:28 | -41.53269 | 147.20705 | 32263 ft | 518 kts | 336° |
| 2026-05-09 11:28 | -41.49915 | 147.18919 | 32442 ft | 521 kts | 335° |
| 2026-05-09 11:28 | -41.46557 | 147.17075 | 32706 ft | 523 kts | 335° |
| 2026-05-09 11:29 | -41.43183 | 147.15222 | 32955 ft | 525 kts | 335° |
| 2026-05-09 11:29 | -41.39800 | 147.13396 | 33332 ft | 524 kts | 335° |
| 2026-05-09 11:29 | -41.36412 | 147.11575 | 33688 ft | 523 kts | 335° |
| 2026-05-09 11:29 | -41.33045 | 147.09749 | 34016 ft | 523 kts | 335° |
| 2026-05-09 11:30 | -41.29666 | 147.07914 | 34337 ft | 524 kts | 335° |
| 2026-05-09 11:30 | -41.26330 | 147.06114 | 34637 ft | 523 kts | 335° |
| 2026-05-09 11:30 | -41.22953 | 147.04298 | 34933 ft | 523 kts | 335° |
| 2026-05-09 11:30 | -41.19587 | 147.02485 | 35212 ft | 522 kts | 335° |
| 2026-05-09 11:31 | -41.16217 | 147.00668 | 35504 ft | 522 kts | 335° |
| 2026-05-09 11:31 | -41.12853 | 146.98859 | 35798 ft | 521 kts | 335° |
| 2026-05-09 11:31 | -41.09487 | 146.97054 | 36085 ft | 521 kts | 335° |
| 2026-05-09 11:31 | -41.06129 | 146.95254 | 36359 ft | 520 kts | 335° |
| 2026-05-09 11:32 | -41.02771 | 146.93454 | 36626 ft | 520 kts | 335° |
| 2026-05-09 11:32 | -40.99426 | 146.91663 | 36911 ft | 519 kts | 335° |
| 2026-05-09 11:32 | -40.96082 | 146.89876 | 37184 ft | 518 kts | 335° |
| 2026-05-09 11:32 | -40.92741 | 146.88092 | 37443 ft | 518 kts | 335° |
| 2026-05-09 11:33 | -40.89404 | 146.86312 | 37707 ft | 517 kts | 335° |
| 2026-05-09 11:33 | -40.86075 | 146.84539 | 38025 ft | 515 kts | 335° |
| 2026-05-09 11:33 | -40.79354 | 146.80961 | 38004 ft | 525 kts | 335° |
| 2026-05-09 11:34 | -40.72525 | 146.77338 | 38012 ft | 533 kts | 335° |
| 2026-05-09 11:34 | -40.65601 | 146.73671 | 38017 ft | 540 kts | 336° |
| 2026-05-09 11:35 | -40.58594 | 146.69969 | 38011 ft | 544 kts | 336° |
| 2026-05-09 11:35 | -40.51605 | 146.66285 | 38025 ft | 544 kts | 336° |
| 2026-05-09 11:36 | -40.44576 | 146.62588 | 38022 ft | 543 kts | 336° |
| 2026-05-09 11:36 | -40.37553 | 146.58901 | 38026 ft | 543 kts | 336° |
| 2026-05-09 11:37 | -40.30552 | 146.55236 | 38021 ft | 542 kts | 336° |
| 2026-05-09 11:37 | -40.23584 | 146.51596 | 38007 ft | 529 kts | 336° |
| 2026-05-09 11:38 | -40.20213 | 146.49840 | 38011 ft | 513 kts | 336° |
| 2026-05-09 11:38 | -40.16946 | 146.48139 | 38007 ft | 499 kts | 336° |
| 2026-05-09 11:38 | -40.10549 | 146.44805 | 38015 ft | 496 kts | 336° |
| 2026-05-09 11:39 | -40.04082 | 146.41449 | 38029 ft | 504 kts | 336° |
| 2026-05-09 11:40 | -39.94309 | 146.36399 | 38037 ft | 506 kts | 336° |
| 2026-05-09 11:40 | -39.87747 | 146.33029 | 38030 ft | 505 kts | 336° |
| 2026-05-09 11:41 | -39.81214 | 146.29674 | 38042 ft | 504 kts | 336° |
| 2026-05-09 11:41 | -39.74721 | 146.26355 | 38043 ft | 495 kts | 335° |
| 2026-05-09 11:42 | -39.68335 | 146.23085 | 38050 ft | 492 kts | 336° |
| 2026-05-09 11:42 | -39.61952 | 146.19832 | 38051 ft | 493 kts | 336° |
| 2026-05-09 11:43 | -39.55603 | 146.16599 | 38056 ft | 494 kts | 336° |
| 2026-05-09 11:43 | -39.49215 | 146.13355 | 38060 ft | 493 kts | 336° |
| 2026-05-09 11:44 | -39.42825 | 146.10114 | 38068 ft | 494 kts | 336° |
| 2026-05-09 11:44 | -39.36412 | 146.06870 | 38070 ft | 494 kts | 336° |
| 2026-05-09 11:45 | -39.29998 | 146.03630 | 38010 ft | 496 kts | 336° |
| 2026-05-09 11:45 | -39.26794 | 146.02015 | 38118 ft | 493 kts | 336° |
| 2026-05-09 11:45 | -39.23604 | 146.00409 | 38299 ft | 492 kts | 336° |
| 2026-05-09 11:46 | -39.17192 | 145.97182 | 38402 ft | 496 kts | 336° |
| 2026-05-09 11:46 | -39.10804 | 145.93976 | 38389 ft | 495 kts | 336° |
| 2026-05-09 11:47 | -39.04394 | 145.90763 | 38396 ft | 495 kts | 336° |
| 2026-05-09 11:47 | -38.97980 | 145.87556 | 38395 ft | 495 kts | 336° |
| 2026-05-09 11:48 | -38.92641 | 145.84891 | 38396 ft | 494 kts | 336° |
| 2026-05-09 11:48 | -38.85179 | 145.81173 | 38402 ft | 494 kts | 337° |
| 2026-05-09 11:49 | -38.79951 | 145.78573 | 38398 ft | 493 kts | 337° |
| 2026-05-09 11:49 | -38.73588 | 145.75415 | 38401 ft | 493 kts | 337° |
| 2026-05-09 11:50 | -38.67190 | 145.72245 | 38404 ft | 493 kts | 337° |
| 2026-05-09 11:50 | -38.60782 | 145.69076 | 38398 ft | 492 kts | 337° |
| 2026-05-09 11:51 | -38.54389 | 145.65921 | 38403 ft | 493 kts | 337° |
| 2026-05-09 11:51 | -38.48035 | 145.62640 | 38423 ft | 490 kts | 328° |
| 2026-05-09 11:51 | -38.45205 | 145.60248 | 38443 ft | 488 kts | 317° |
| 2026-05-09 11:52 | -38.42608 | 145.57452 | 38420 ft | 489 kts | 317° |
| 2026-05-09 11:52 | -38.37663 | 145.52068 | 38426 ft | 489 kts | 317° |
| 2026-05-09 11:53 | -38.32474 | 145.46459 | 38422 ft | 489 kts | 317° |
| 2026-05-09 11:53 | -38.27294 | 145.40860 | 38426 ft | 488 kts | 317° |
| 2026-05-09 11:54 | -38.22114 | 145.35274 | 38429 ft | 488 kts | 318° |
| 2026-05-09 11:54 | -38.16924 | 145.29689 | 38431 ft | 489 kts | 318° |
| 2026-05-09 11:55 | -38.11733 | 145.24113 | 38430 ft | 488 kts | 318° |
| 2026-05-09 11:56 | -37.96039 | 145.07742 | 38453 ft | 489 kts | 327° |
| 2026-05-09 11:57 | -37.91393 | 145.04104 | 38419 ft | 490 kts | 327° |
| 2026-05-09 11:57 | -37.87740 | 145.01241 | 38426 ft | 491 kts | 327° |
| 2026-05-09 11:58 | -37.82005 | 144.96715 | 38419 ft | 490 kts | 327° |
| 2026-05-09 11:58 | -37.76206 | 144.92178 | 38444 ft | 490 kts | 327° |
| 2026-05-09 11:59 | -37.70394 | 144.87622 | 38443 ft | 491 kts | 327° |
| 2026-05-09 11:59 | -37.64734 | 144.82923 | 38461 ft | 488 kts | 320° |
| 2026-05-09 12:00 | -37.59450 | 144.77516 | 38442 ft | 489 kts | 320° |
| 2026-05-09 12:00 | -37.54123 | 144.72119 | 38437 ft | 495 kts | 320° |
| 2026-05-09 12:01 | -37.48712 | 144.66635 | 38434 ft | 502 kts | 320° |
| 2026-05-09 12:01 | -37.43227 | 144.61088 | 38435 ft | 509 kts | 320° |
| 2026-05-09 12:02 | -37.37664 | 144.55476 | 38433 ft | 514 kts | 320° |
| 2026-05-09 12:02 | -37.32119 | 144.49889 | 38429 ft | 513 kts | 320° |
| 2026-05-09 12:03 | -37.26548 | 144.44291 | 38424 ft | 512 kts | 321° |
| 2026-05-09 12:03 | -37.20987 | 144.38710 | 38423 ft | 511 kts | 321° |
| 2026-05-09 12:04 | -37.15428 | 144.33145 | 38422 ft | 511 kts | 321° |
| 2026-05-09 12:04 | -37.09876 | 144.27596 | 38418 ft | 510 kts | 321° |
| 2026-05-09 12:05 | -37.04321 | 144.22055 | 38419 ft | 510 kts | 321° |
| 2026-05-09 12:05 | -36.98772 | 144.16531 | 38420 ft | 510 kts | 321° |
| 2026-05-09 12:06 | -36.93213 | 144.11007 | 38416 ft | 510 kts | 321° |
| 2026-05-09 12:06 | -36.87661 | 144.05501 | 38417 ft | 509 kts | 321° |
| 2026-05-09 12:07 | -36.82102 | 143.99999 | 38415 ft | 510 kts | 322° |
| 2026-05-09 12:07 | -36.76543 | 143.94512 | 38415 ft | 509 kts | 322° |
| 2026-05-09 12:08 | -36.70976 | 143.89050 | 38415 ft | 509 kts | 322° |
| 2026-05-09 12:08 | -36.65438 | 143.83612 | 38410 ft | 509 kts | 322° |
| 2026-05-09 12:09 | -36.59862 | 143.78156 | 38412 ft | 509 kts | 322° |
| 2026-05-09 12:09 | -36.54287 | 143.72706 | 38412 ft | 510 kts | 322° |
| 2026-05-09 12:10 | -36.43129 | 143.61834 | 38411 ft | 509 kts | 322° |
| 2026-05-09 12:11 | -36.37552 | 143.56414 | 38412 ft | 509 kts | 322° |
| 2026-05-09 12:11 | -36.31980 | 143.51011 | 38408 ft | 509 kts | 322° |
| 2026-05-09 12:12 | -36.26436 | 143.45643 | 38411 ft | 509 kts | 323° |
| 2026-05-09 12:12 | -36.20814 | 143.40210 | 38401 ft | 510 kts | 323° |
| 2026-05-09 12:13 | -36.15254 | 143.34848 | 38393 ft | 509 kts | 323° |
| 2026-05-09 12:13 | -36.09667 | 143.29470 | 38395 ft | 508 kts | 323° |
| 2026-05-09 12:14 | -36.04075 | 143.24096 | 38399 ft | 509 kts | 323° |
| 2026-05-09 12:14 | -35.98477 | 143.18727 | 38399 ft | 509 kts | 323° |
| 2026-05-09 12:15 | -35.92873 | 143.13361 | 38404 ft | 509 kts | 323° |
| 2026-05-09 12:15 | -35.87281 | 143.08017 | 38395 ft | 509 kts | 323° |
| 2026-05-09 12:16 | -35.81686 | 143.02681 | 38401 ft | 509 kts | 323° |
| 2026-05-09 12:16 | -35.76081 | 142.97344 | 38412 ft | 510 kts | 323° |
| 2026-05-09 12:17 | -35.70462 | 142.92004 | 38399 ft | 509 kts | 324° |
| 2026-05-09 12:17 | -35.64850 | 142.86680 | 38407 ft | 510 kts | 324° |
| 2026-05-09 12:18 | -35.59231 | 142.81360 | 38398 ft | 510 kts | 324° |
| 2026-05-09 12:18 | -35.53611 | 142.76047 | 38408 ft | 510 kts | 324° |
| 2026-05-09 12:19 | -35.47991 | 142.70746 | 38408 ft | 510 kts | 324° |
| 2026-05-09 12:19 | -35.42399 | 142.65480 | 38404 ft | 510 kts | 324° |
| 2026-05-09 12:20 | -35.36767 | 142.60187 | 38409 ft | 510 kts | 324° |
| 2026-05-09 12:20 | -35.31131 | 142.54898 | 38404 ft | 511 kts | 324° |
| 2026-05-09 12:21 | -35.25500 | 142.49624 | 38405 ft | 510 kts | 324° |
| 2026-05-09 12:21 | -35.19860 | 142.44352 | 38412 ft | 509 kts | 324° |
| 2026-05-09 12:22 | -35.14234 | 142.39101 | 38405 ft | 509 kts | 324° |
| 2026-05-09 12:22 | -35.08633 | 142.33884 | 38406 ft | 509 kts | 324° |
| 2026-05-09 12:23 | -35.03003 | 142.28648 | 38414 ft | 509 kts | 324° |
| 2026-05-09 12:23 | -34.97358 | 142.23408 | 38410 ft | 509 kts | 324° |
| 2026-05-09 12:24 | -34.91714 | 142.18178 | 38406 ft | 509 kts | 324° |
| 2026-05-09 12:24 | -34.86072 | 142.12959 | 38410 ft | 509 kts | 324° |
| 2026-05-09 12:25 | -34.80442 | 142.07761 | 38417 ft | 508 kts | 324° |